New England — V7HF3 — position and weather

sailwx.info

Track history (hours):
 
Tides and Currents Weather Stations Pressure Air Temp Water Temp Dewpoint Dewpoint Depression Visibility Wind Speed Wind Dir Waves Ship Positions

New England

Last reported at 2017-Feb-21 02:31 UTC. Time now 2017-Feb-26 07:39 UTC.
Position N 42°44' W 070°07'.

Length 182 m; draft 7.4 m.

Type: Ship. MMSI: 538002220.

Date/timePositionNaut miles runAvg speedWind from/ knotsBaromVisibWave heightAir tempDewpointWater temp
2017-Feb-21 02:31N 42°44' W 070°07'1212.6
2017-Feb-21 01:33N 42°38' W 070°22'1313.0
2017-Feb-21 00:33N 42°31' W 070°37'1313.2
2017-Feb-20 23:33N 42°24' W 070°52'8 8.2
2017-Feb-20 22:33N 42°22' W 071°03'1 0.0
2017-Feb-19 11:33N 42°23' W 071°02'4 3.8
2017-Feb-19 10:33N 42°20' W 070°59'1 0.5
2017-Feb-19 09:31N 42°20' W 070°58'0 0.1
2017-Feb-19 08:34N 42°20' W 070°58'5 5.3
2017-Feb-19 07:33N 42°24' W 070°53'1212.4
2017-Feb-19 06:33N 42°30' W 070°38'1313.3
2017-Feb-19 05:33N 42°38' W 070°23'1312.9
2017-Feb-19 04:33N 42°45' W 070°08'1312.7
2017-Feb-19 03:33N 42°51' W 069°54'  
2017-Feb-16 15:33N 42°42' W 070°12'1312.8
2017-Feb-16 14:34N 42°36' W 070°27'1413.5
2017-Feb-16 13:33N 42°28' W 070°42'1312.8
2017-Feb-16 12:33N 42°21' W 070°56'5 4.4
2017-Feb-16 11:31N 42°24' W 071°01'2 0.0
2017-Feb-14 15:33N 42°23' W 071°03'6 6.3
2017-Feb-14 14:33N 42°23' W 070°54'4 3.9
2017-Feb-14 13:31N 42°25' W 070°50'0 0.1
2017-Feb-14 12:31N 42°25' W 070°50'0 0.0
2017-Feb-14 11:31N 42°25' W 070°50'0 0.0
2017-Feb-14 10:31N 42°25' W 070°50'0 0.0
2017-Feb-14 09:31N 42°25' W 070°50'0 0.0
2017-Feb-14 08:28N 42°25' W 070°50'0 0.0
2017-Feb-14 07:28N 42°25' W 070°50'0 0.0
2017-Feb-14 06:28N 42°25' W 070°50'0 0.0
2017-Feb-14 05:31N 42°25' W 070°50'0 0.0
2017-Feb-14 04:31N 42°25' W 070°50'0 0.0
2017-Feb-14 03:31N 42°25' W 070°50'0 0.0
2017-Feb-14 02:28N 42°25' W 070°50'0 0.0
2017-Feb-14 01:32N 42°25' W 070°50'0 0.0
2017-Feb-14 00:31N 42°25' W 070°50'0 0.0
2017-Feb-13 23:31N 42°25' W 070°50'0 0.0
2017-Feb-13 22:31N 42°25' W 070°50'0 0.0
2017-Feb-13 21:25N 42°25' W 070°50'0 0.0
2017-Feb-13 20:31N 42°25' W 070°50'0 0.0
2017-Feb-13 19:31N 42°25' W 070°50'0 0.1
2017-Feb-13 18:32N 42°25' W 070°50'0 0.0
2017-Feb-13 17:31N 42°25' W 070°50'0 0.0
2017-Feb-13 16:31N 42°25' W 070°50'0 0.1
2017-Feb-13 15:28N 42°25' W 070°50'0 0.0
2017-Feb-13 14:28N 42°25' W 070°50'0 0.0
2017-Feb-13 13:31N 42°25' W 070°50'0 0.0
2017-Feb-13 12:31N 42°25' W 070°50'0 0.0
2017-Feb-13 11:31N 42°25' W 070°50'0 0.0
2017-Feb-13 10:31N 42°25' W 070°50'0 0.0
2017-Feb-13 09:31N 42°25' W 070°50'0 0.0
2017-Feb-13 08:31N 42°25' W 070°50'0 0.0
2017-Feb-13 07:28N 42°25' W 070°50'0 0.1
2017-Feb-13 06:31N 42°25' W 070°50'0 0.0
2017-Feb-13 05:31N 42°25' W 070°50'0 0.1
2017-Feb-13 04:31N 42°25' W 070°50'0 0.1
2017-Feb-13 03:31N 42°25' W 070°50'0 0.1
2017-Feb-13 02:31N 42°25' W 070°50'0 0.2
2017-Feb-13 01:31N 42°25' W 070°50'0 0.0
2017-Feb-13 00:31N 42°25' W 070°50'0 0.0
2017-Feb-12 23:31N 42°25' W 070°49'0 0.0
2017-Feb-12 22:31N 42°25' W 070°49'0 0.0
2017-Feb-12 21:31N 42°25' W 070°49'0 0.0
2017-Feb-12 20:31N 42°25' W 070°49'0 0.0
2017-Feb-12 19:31N 42°25' W 070°49'0 0.0
2017-Feb-12 18:31N 42°25' W 070°49'0 0.0
2017-Feb-12 17:31N 42°25' W 070°49'0 0.0
2017-Feb-12 16:31N 42°25' W 070°49'0 0.0
2017-Feb-12 15:32N 42°25' W 070°49'0 0.0
2017-Feb-12 14:31N 42°25' W 070°49'0 0.0
2017-Feb-12 13:31N 42°25' W 070°49'0 0.1
2017-Feb-12 12:31N 42°25' W 070°49'0 0.1
2017-Feb-12 11:31N 42°25' W 070°49'0 0.0
2017-Feb-12 10:28N 42°25' W 070°49'0 0.0
2017-Feb-12 09:28N 42°25' W 070°49'0 0.0
2017-Feb-12 08:28N 42°25' W 070°49'0 0.0
2017-Feb-12 07:28N 42°25' W 070°49'0 0.0
2017-Feb-12 06:31N 42°25' W 070°49'0 0.0
2017-Feb-12 05:31N 42°25' W 070°49'0 0.0
2017-Feb-12 04:31N 42°25' W 070°49'0 0.0
2017-Feb-12 03:28N 42°25' W 070°49'0 0.0
2017-Feb-12 02:28N 42°25' W 070°49'0 0.0
2017-Feb-12 01:31N 42°25' W 070°49'0 0.0
2017-Feb-12 00:28N 42°25' W 070°49'0 0.0
2017-Feb-11 23:31N 42°25' W 070°49'0 0.0
2017-Feb-11 22:31N 42°25' W 070°49'0 0.0
2017-Feb-11 21:31N 42°25' W 070°49'0 0.0
2017-Feb-11 20:28N 42°25' W 070°49'0 0.0
2017-Feb-11 19:31N 42°25' W 070°49'0 0.0
2017-Feb-11 18:31N 42°25' W 070°49'0 0.0
2017-Feb-11 17:31N 42°25' W 070°49'0 0.2
2017-Feb-11 16:22N 42°26' W 070°49'0 0.0
2017-Feb-11 15:28N 42°26' W 070°49'0 0.0
2017-Feb-11 14:31N 42°26' W 070°49'0 0.0
2017-Feb-11 13:31N 42°26' W 070°49'0 0.0
2017-Feb-11 12:31N 42°26' W 070°49'1 0.9
2017-Feb-11 11:33N 42°26' W 070°48'1110.8
2017-Feb-11 10:33N 42°32' W 070°36'1413.5
2017-Feb-11 09:33N 42°39' W 070°20'1413.5
2017-Feb-11 08:33N 42°46' W 070°05'  
Track history (hours):
 
Tides and Currents Weather Stations Pressure Air Temp Water Temp Dewpoint Dewpoint Depression Visibility Wind Speed Wind Dir Waves Ship Positions

New England

Last reported at 2017-Feb-21 02:31 UTC. Time now 2017-Feb-26 07:39 UTC.
Position N 42°44' W 070°07'.

Length 182 m; draft 7.4 m.

Type: Ship. MMSI: 538002220.

Date/timePositionNaut miles runAvg speedWind from/ knotsBaromVisibWave heightAir tempDewpointWater temp
2017-Feb-21 02:31N 42°44' W 070°07'1212.6
2017-Feb-21 01:33N 42°38' W 070°22'1313.0
2017-Feb-21 00:33N 42°31' W 070°37'1313.2
2017-Feb-20 23:33N 42°24' W 070°52'8 8.2
2017-Feb-20 22:33N 42°22' W 071°03'1 0.0
2017-Feb-19 11:33N 42°23' W 071°02'4 3.8
2017-Feb-19 10:33N 42°20' W 070°59'1 0.5
2017-Feb-19 09:31N 42°20' W 070°58'0 0.1
2017-Feb-19 08:34N 42°20' W 070°58'5 5.3
2017-Feb-19 07:33N 42°24' W 070°53'1212.4
2017-Feb-19 06:33N 42°30' W 070°38'1313.3
2017-Feb-19 05:33N 42°38' W 070°23'1312.9
2017-Feb-19 04:33N 42°45' W 070°08'1312.7
2017-Feb-19 03:33N 42°51' W 069°54'  
2017-Feb-16 15:33N 42°42' W 070°12'1312.8
2017-Feb-16 14:34N 42°36' W 070°27'1413.5
2017-Feb-16 13:33N 42°28' W 070°42'1312.8
2017-Feb-16 12:33N 42°21' W 070°56'5 4.4
2017-Feb-16 11:31N 42°24' W 071°01'2 0.0
2017-Feb-14 15:33N 42°23' W 071°03'6 6.3
2017-Feb-14 14:33N 42°23' W 070°54'4 3.9
2017-Feb-14 13:31N 42°25' W 070°50'0 0.1
2017-Feb-14 12:31N 42°25' W 070°50'0 0.0
2017-Feb-14 11:31N 42°25' W 070°50'0 0.0
2017-Feb-14 10:31N 42°25' W 070°50'0 0.0
2017-Feb-14 09:31N 42°25' W 070°50'0 0.0
2017-Feb-14 08:28N 42°25' W 070°50'0 0.0
2017-Feb-14 07:28N 42°25' W 070°50'0 0.0
2017-Feb-14 06:28N 42°25' W 070°50'0 0.0
2017-Feb-14 05:31N 42°25' W 070°50'0 0.0
2017-Feb-14 04:31N 42°25' W 070°50'0 0.0
2017-Feb-14 03:31N 42°25' W 070°50'0 0.0
2017-Feb-14 02:28N 42°25' W 070°50'0 0.0
2017-Feb-14 01:32N 42°25' W 070°50'0 0.0
2017-Feb-14 00:31N 42°25' W 070°50'0 0.0
2017-Feb-13 23:31N 42°25' W 070°50'0 0.0
2017-Feb-13 22:31N 42°25' W 070°50'0 0.0
2017-Feb-13 21:25N 42°25' W 070°50'0 0.0
2017-Feb-13 20:31N 42°25' W 070°50'0 0.0
2017-Feb-13 19:31N 42°25' W 070°50'0 0.1
2017-Feb-13 18:32N 42°25' W 070°50'0 0.0
2017-Feb-13 17:31N 42°25' W 070°50'0 0.0
2017-Feb-13 16:31N 42°25' W 070°50'0 0.1
2017-Feb-13 15:28N 42°25' W 070°50'0 0.0
2017-Feb-13 14:28N 42°25' W 070°50'0 0.0
2017-Feb-13 13:31N 42°25' W 070°50'0 0.0
2017-Feb-13 12:31N 42°25' W 070°50'0 0.0
2017-Feb-13 11:31N 42°25' W 070°50'0 0.0
2017-Feb-13 10:31N 42°25' W 070°50'0 0.0
2017-Feb-13 09:31N 42°25' W 070°50'0 0.0
2017-Feb-13 08:31N 42°25' W 070°50'0 0.0
2017-Feb-13 07:28N 42°25' W 070°50'0 0.1
2017-Feb-13 06:31N 42°25' W 070°50'0 0.0
2017-Feb-13 05:31N 42°25' W 070°50'0 0.1
2017-Feb-13 04:31N 42°25' W 070°50'0 0.1
2017-Feb-13 03:31N 42°25' W 070°50'0 0.1
2017-Feb-13 02:31N 42°25' W 070°50'0 0.2
2017-Feb-13 01:31N 42°25' W 070°50'0 0.0
2017-Feb-13 00:31N 42°25' W 070°50'0 0.0
2017-Feb-12 23:31N 42°25' W 070°49'0 0.0
2017-Feb-12 22:31N 42°25' W 070°49'0 0.0
2017-Feb-12 21:31N 42°25' W 070°49'0 0.0
2017-Feb-12 20:31N 42°25' W 070°49'0 0.0
2017-Feb-12 19:31N 42°25' W 070°49'0 0.0
2017-Feb-12 18:31N 42°25' W 070°49'0 0.0
2017-Feb-12 17:31N 42°25' W 070°49'0 0.0
2017-Feb-12 16:31N 42°25' W 070°49'0 0.0
2017-Feb-12 15:32N 42°25' W 070°49'0 0.0
2017-Feb-12 14:31N 42°25' W 070°49'0 0.0
2017-Feb-12 13:31N 42°25' W 070°49'0 0.1
2017-Feb-12 12:31N 42°25' W 070°49'0 0.1
2017-Feb-12 11:31N 42°25' W 070°49'0 0.0
2017-Feb-12 10:28N 42°25' W 070°49'0 0.0
2017-Feb-12 09:28N 42°25' W 070°49'0 0.0
2017-Feb-12 08:28N 42°25' W 070°49'0 0.0
2017-Feb-12 07:28N 42°25' W 070°49'0 0.0
2017-Feb-12 06:31N 42°25' W 070°49'0 0.0
2017-Feb-12 05:31N 42°25' W 070°49'0 0.0
2017-Feb-12 04:31N 42°25' W 070°49'0 0.0
2017-Feb-12 03:28N 42°25' W 070°49'0 0.0
2017-Feb-12 02:28N 42°25' W 070°49'0 0.0
2017-Feb-12 01:31N 42°25' W 070°49'0 0.0
2017-Feb-12 00:28N 42°25' W 070°49'0 0.0
2017-Feb-11 23:31N 42°25' W 070°49'0 0.0
2017-Feb-11 22:31N 42°25' W 070°49'0 0.0
2017-Feb-11 21:31N 42°25' W 070°49'0 0.0
2017-Feb-11 20:28N 42°25' W 070°49'0 0.0
2017-Feb-11 19:31N 42°25' W 070°49'0 0.0
2017-Feb-11 18:31N 42°25' W 070°49'0 0.0
2017-Feb-11 17:31N 42°25' W 070°49'0 0.2
2017-Feb-11 16:22N 42°26' W 070°49'0 0.0
2017-Feb-11 15:28N 42°26' W 070°49'0 0.0
2017-Feb-11 14:31N 42°26' W 070°49'0 0.0
2017-Feb-11 13:31N 42°26' W 070°49'0 0.0
2017-Feb-11 12:31N 42°26' W 070°49'1 0.9
2017-Feb-11 11:33N 42°26' W 070°48'1110.8
2017-Feb-11 10:33N 42°32' W 070°36'1413.5
2017-Feb-11 09:33N 42°39' W 070°20'1413.5
2017-Feb-11 08:33N 42°46' W 070°05'  

Dump ship's entire track history